createdAt,value
2019-02-26T00:00:03.788Z,15.30
2019-02-26T00:02:50.595Z,15.23
2019-02-26T00:05:21.661Z,16.23
2019-02-26T00:07:56.118Z,15.07
2019-02-26T00:10:39.369Z,15.27
2019-02-26T00:13:10.981Z,15.60
2019-02-26T00:15:43.286Z,15.53
2019-02-26T00:18:16.791Z,15.70
2019-02-26T00:20:49.431Z,15.13
2019-02-26T00:23:21.623Z,15.07
2019-02-26T00:25:54.584Z,15.20
2019-02-26T00:28:39.108Z,15.30
2019-02-26T00:31:24.304Z,15.83
2019-02-26T00:33:56.112Z,15.57
2019-02-26T00:36:29.722Z,15.60
2019-02-26T00:39:12.864Z,15.53
2019-02-26T00:41:44.510Z,15.33
2019-02-26T00:44:16.160Z,15.60
2019-02-26T00:46:59.770Z,15.53
2019-02-26T00:49:32.741Z,14.67
2019-02-26T00:52:06.226Z,14.87
2019-02-26T00:55:03.189Z,15.60
2019-02-26T00:57:36.474Z,15.70
2019-02-26T01:00:12.271Z,16.27
2019-02-26T01:02:44.089Z,16.00
2019-02-26T01:05:17.041Z,17.43
2019-02-26T01:07:51.479Z,17.73
2019-02-26T01:10:23.607Z,17.07
2019-02-26T01:12:56.489Z,17.87
2019-02-26T01:15:28.796Z,17.90
2019-02-26T01:18:01.442Z,17.87
2019-02-26T01:20:33.835Z,16.17
2019-02-26T01:23:05.476Z,17.30
2019-02-26T01:25:48.641Z,16.20
2019-02-26T01:28:20.864Z,16.33
2019-02-26T01:30:55.564Z,16.97
2019-02-26T01:33:29.747Z,16.87
2019-02-26T01:36:02.458Z,15.40
2019-02-26T01:38:46.278Z,15.70
2019-02-26T01:41:20.331Z,17.87
2019-02-26T01:44:03.421Z,16.57
2019-02-26T01:46:47.121Z,16.47
2019-02-26T01:49:30.437Z,17.20
2019-02-26T01:52:02.080Z,16.77
2019-02-26T01:54:35.679Z,16.27
2019-02-26T01:57:09.125Z,15.83
2019-02-26T01:59:40.490Z,17.23
2019-02-26T02:02:15.143Z,20.80
2019-02-26T02:05:06.686Z,18.33
2019-02-26T02:07:51.838Z,19.13
2019-02-26T02:10:22.701Z,17.13
2019-02-26T02:12:57.340Z,15.90
2019-02-26T02:15:28.183Z,17.20
2019-02-26T02:18:01.574Z,16.90
2019-02-26T02:20:44.789Z,16.77
2019-02-26T02:23:16.201Z,15.80
2019-02-26T02:25:47.416Z,16.53
2019-02-26T02:28:19.557Z,17.40
2019-02-26T02:30:51.912Z,16.07
2019-02-26T02:33:37.418Z,16.53
2019-02-26T02:36:09.721Z,16.33
2019-02-26T02:38:53.689Z,17.07
2019-02-26T02:41:25.993Z,16.10
2019-02-26T02:44:12.426Z,16.20
2019-02-26T02:46:44.935Z,14.53
2019-02-26T02:49:30.116Z,14.40
2019-02-26T02:52:04.170Z,14.47
2019-02-26T02:54:49.452Z,16.53
2019-02-26T02:57:34.420Z,15.73
2019-02-26T03:00:08.509Z,16.17
2019-02-26T03:02:53.090Z,16.67
2019-02-26T03:05:38.040Z,16.83
2019-02-26T03:08:10.907Z,15.57
2019-02-26T03:10:44.928Z,16.67
2019-02-26T03:13:28.034Z,16.63
2019-02-26T03:16:01.666Z,16.57
2019-02-26T03:18:44.830Z,14.33
2019-02-26T03:21:16.740Z,14.77
2019-02-26T03:23:49.156Z,15.17
2019-02-26T03:26:22.756Z,13.73
2019-02-26T03:29:05.069Z,14.03
2019-02-26T03:31:40.523Z,13.77
2019-02-26T03:34:25.158Z,14.63
2019-02-26T03:37:08.336Z,13.43
2019-02-26T03:39:52.645Z,14.50
2019-02-26T03:42:25.065Z,14.00
2019-02-26T03:44:56.396Z,14.63
2019-02-26T03:47:27.802Z,16.00
2019-02-26T03:50:10.513Z,16.40
2019-02-26T03:52:42.441Z,15.20
2019-02-26T03:55:18.256Z,15.80
2019-02-26T03:57:50.567Z,16.97
2019-02-26T04:00:21.246Z,15.77
2019-02-26T04:02:52.691Z,15.63
2019-02-26T04:05:24.057Z,15.73
2019-02-26T04:07:56.819Z,16.27
2019-02-26T04:10:28.397Z,16.23
2019-02-26T04:13:11.984Z,16.57
2019-02-26T04:15:43.412Z,16.00
2019-02-26T04:18:14.835Z,16.10
2019-02-26T04:20:46.183Z,16.20
2019-02-26T04:23:20.022Z,16.20
2019-02-26T04:26:18.530Z,16.70
2019-02-26T04:28:57.302Z,17.00
2019-02-26T04:32:18.410Z,16.40
2019-02-26T04:35:27.298Z,14.87
2019-02-26T04:38:56.692Z,15.73
2019-02-26T04:41:34.202Z,15.70
2019-02-26T04:44:31.398Z,16.20
2019-02-26T04:47:15.175Z,16.57
2019-02-26T04:49:46.465Z,16.50
2019-02-26T04:52:17.831Z,16.40
2019-02-26T04:55:00.837Z,16.13
2019-02-26T04:57:46.493Z,17.17
2019-02-26T05:00:17.621Z,17.67
2019-02-26T05:02:48.963Z,17.00
2019-02-26T05:05:34.912Z,17.97
2019-02-26T05:08:17.766Z,16.47
2019-02-26T05:10:51.765Z,15.77
2019-02-26T05:13:46.437Z,16.07
2019-02-26T05:16:32.818Z,15.70
2019-02-26T05:19:03.054Z,15.90
2019-02-26T05:21:35.445Z,16.77
2019-02-26T05:24:07.452Z,17.40
2019-02-26T05:26:38.977Z,17.43
2019-02-26T05:29:13.005Z,15.60
2019-02-26T05:31:44.348Z,17.00
2019-02-26T05:34:17.970Z,16.10
2019-02-26T05:36:48.914Z,18.40
2019-02-26T05:39:21.716Z,18.30
2019-02-26T05:41:55.590Z,17.40
2019-02-26T05:44:38.881Z,16.70
2019-02-26T05:47:10.249Z,17.00
2019-02-26T05:49:45.314Z,16.07
2019-02-26T05:52:14.628Z,15.40
2019-02-26T05:54:45.996Z,16.00
2019-02-26T05:57:27.691Z,16.17
2019-02-26T05:59:50.374Z,17.03
2019-02-26T06:02:24.455Z,17.97
2019-02-26T06:04:54.993Z,16.80
2019-02-26T06:07:28.111Z,17.50
2019-02-26T06:10:11.551Z,16.90
2019-02-26T06:12:46.012Z,17.47
2019-02-26T06:15:28.803Z,16.47
2019-02-26T06:18:01.137Z,16.53
2019-02-26T06:20:36.111Z,15.87
2019-02-26T06:23:28.166Z,16.40
2019-02-26T06:26:02.302Z,16.17
2019-02-26T06:28:38.046Z,16.67
2019-02-26T06:31:19.344Z,16.17
2019-02-26T06:33:50.635Z,15.67
2019-02-26T06:36:23.374Z,18.30
2019-02-26T06:38:56.427Z,17.70
2019-02-26T06:41:28.121Z,17.30
2019-02-26T06:44:10.974Z,15.80
2019-02-26T06:46:42.488Z,16.67
2019-02-26T06:49:14.989Z,16.23
2019-02-26T06:51:47.457Z,15.63
2019-02-26T06:54:22.157Z,16.93
2019-02-26T06:56:53.780Z,15.80
2019-02-26T06:59:37.199Z,16.77
2019-02-26T07:02:08.802Z,16.83
2019-02-26T07:04:41.719Z,16.50
2019-02-26T07:07:14.451Z,16.53
2019-02-26T07:09:58.215Z,15.93
2019-02-26T07:12:29.552Z,16.10
2019-02-26T07:15:00.854Z,15.80
2019-02-26T07:17:46.047Z,15.93
2019-02-26T07:20:18.617Z,17.60
2019-02-26T07:22:51.623Z,16.47
2019-02-26T07:25:23.121Z,15.77
2019-02-26T07:27:56.331Z,16.07
2019-02-26T07:30:27.508Z,17.17
2019-02-26T07:32:58.891Z,17.27
2019-02-26T07:35:31.041Z,15.87
2019-02-26T07:38:03.658Z,17.17
2019-02-26T07:40:35.907Z,17.07
2019-02-26T07:43:09.834Z,16.50
2019-02-26T07:45:41.292Z,16.27
2019-02-26T07:48:16.276Z,16.77
2019-02-26T07:50:48.118Z,17.13
2019-02-26T07:53:21.649Z,16.80
2019-02-26T07:55:51.937Z,17.07
2019-02-26T07:58:23.441Z,16.73
2019-02-26T08:01:06.932Z,18.57
2019-02-26T08:03:38.453Z,19.83
2019-02-26T08:06:11.758Z,19.20
2019-02-26T08:08:55.148Z,19.10
2019-02-26T08:11:26.577Z,15.90
2019-02-26T08:14:09.836Z,15.53
2019-02-26T08:16:42.098Z,15.80
2019-02-26T08:19:13.502Z,16.00
2019-02-26T08:21:45.487Z,16.33
2019-02-26T08:24:20.341Z,17.30
2019-02-26T08:26:50.964Z,17.13
2019-02-26T08:29:36.185Z,16.33
2019-02-26T08:32:18.828Z,16.90
2019-02-26T08:34:50.901Z,17.87
2019-02-26T08:37:22.362Z,17.10
2019-02-26T08:40:06.231Z,15.57
2019-02-26T08:42:49.353Z,16.00
2019-02-26T08:45:23.124Z,15.80
2019-02-26T08:47:53.702Z,16.33
2019-02-26T08:50:28.574Z,17.67
2019-02-26T08:52:58.662Z,18.40
2019-02-26T08:55:30.114Z,16.57
2019-02-26T08:58:01.484Z,16.37
2019-02-26T09:00:34.342Z,15.93
2019-02-26T09:03:05.784Z,15.97
2019-02-26T09:05:37.286Z,16.77
2019-02-26T09:08:10.886Z,15.10
2019-02-26T09:10:43.718Z,14.80
2019-02-26T09:13:16.454Z,14.30
2019-02-26T09:15:48.030Z,14.90
2019-02-26T09:18:31.198Z,14.07
2019-02-26T09:21:03.687Z,13.90
2019-02-26T09:26:07.024Z,14.30
2019-02-26T09:28:39.498Z,13.90
2019-02-26T09:31:12.286Z,14.73
2019-02-26T09:33:45.486Z,14.10
2019-02-26T09:36:20.523Z,13.67
2019-02-26T09:38:51.406Z,13.83
2019-02-26T09:41:22.927Z,13.57
2019-02-26T09:43:54.222Z,14.00
2019-02-26T09:46:25.702Z,13.37
2019-02-26T09:48:57.934Z,13.40
2019-02-26T09:51:30.696Z,14.07
2019-02-26T09:54:03.149Z,17.73
2019-02-26T09:56:34.520Z,13.40
2019-02-26T09:59:17.294Z,14.20
2019-02-26T10:02:01.722Z,13.10
2019-02-26T10:04:33.909Z,13.33
2019-02-26T10:07:17.409Z,14.13
2019-02-26T10:09:49.647Z,12.33
2019-02-26T10:12:21.008Z,14.07
2019-02-26T10:14:54.541Z,12.10
2019-02-26T10:17:25.484Z,14.20
2019-02-26T10:19:56.940Z,12.33
2019-02-26T10:22:41.554Z,12.67
2019-02-26T10:25:15.211Z,12.33
2019-02-26T10:27:47.873Z,11.87
2019-02-26T10:30:20.292Z,12.17
2019-02-26T10:32:51.703Z,11.33
2019-02-26T10:35:32.372Z,11.00
2019-02-26T10:37:57.092Z,10.27
2019-02-26T10:40:35.101Z,10.43
2019-02-26T10:43:02.374Z,9.07
2019-02-26T10:45:38.690Z,9.30
2019-02-26T10:48:06.797Z,8.50
2019-02-26T10:50:40.315Z,7.00
2019-02-26T10:53:23.441Z,6.73
2019-02-26T10:55:54.789Z,7.60
2019-02-26T10:58:26.087Z,7.00
2019-02-26T11:01:08.846Z,7.87
2019-02-26T11:03:41.665Z,7.03
2019-02-26T11:06:16.861Z,7.60
2019-02-26T11:08:47.529Z,7.13
2019-02-26T11:11:20.467Z,7.70
2019-02-26T11:13:53.791Z,7.20
2019-02-26T11:16:25.888Z,7.00
2019-02-26T11:18:59.229Z,7.43
2019-02-26T11:21:31.801Z,6.97
2019-02-26T11:24:04.119Z,7.00
2019-02-26T11:26:46.508Z,7.47
2019-02-26T11:29:30.447Z,6.90
2019-02-26T11:32:15.557Z,7.00
2019-02-26T11:34:47.857Z,6.23
2019-02-26T11:37:20.300Z,6.33
2019-02-26T11:39:54.654Z,4.83
2019-02-26T11:42:26.239Z,4.33
2019-02-26T11:44:58.525Z,3.90
2019-02-26T11:47:32.141Z,3.60
2019-02-26T11:50:15.010Z,3.30
2019-02-26T11:52:46.545Z,3.13
2019-02-26T11:55:18.022Z,2.63
2019-02-26T11:57:49.780Z,4.40
2019-02-26T12:00:44.795Z,3.30
2019-02-26T12:03:28.153Z,3.10
2019-02-26T12:06:01.986Z,3.23
2019-02-26T12:08:47.209Z,3.67
2019-02-26T12:11:20.435Z,3.00
2019-02-26T12:13:53.153Z,4.57
2019-02-26T12:16:28.438Z,2.77
2019-02-26T12:19:01.268Z,3.63
2019-02-26T12:21:34.499Z,3.07
2019-02-26T12:24:06.695Z,2.80
2019-02-26T12:26:38.605Z,2.87
2019-02-26T12:29:10.318Z,2.40
2019-02-26T12:31:42.682Z,6.83
2019-02-26T12:34:14.713Z,2.50
2019-02-26T12:36:48.085Z,3.47
2019-02-26T12:39:22.241Z,2.50
2019-02-26T12:41:53.232Z,2.93
2019-02-26T12:44:38.208Z,3.87
2019-02-26T12:47:07.756Z,4.23
2019-02-26T12:49:41.543Z,3.70
2019-02-26T12:52:12.194Z,5.00
2019-02-26T12:54:57.572Z,5.87
2019-02-26T12:57:29.675Z,6.77
2019-02-26T13:00:13.982Z,3.80
2019-02-26T13:02:49.263Z,3.60
2019-02-26T13:05:22.335Z,1.73
2019-02-26T13:08:06.146Z,4.17
2019-02-26T13:10:38.648Z,2.80
2019-02-26T13:13:10.573Z,4.57
2019-02-26T13:15:42.217Z,3.17
2019-02-26T13:18:13.576Z,3.70
2019-02-26T13:20:45.150Z,2.70
2019-02-26T13:23:20.609Z,3.43
2019-02-26T13:26:04.667Z,3.33
2019-02-26T13:28:38.117Z,2.30
2019-02-26T13:31:13.750Z,2.27
2019-02-26T13:33:43.184Z,2.63
2019-02-26T13:36:16.336Z,2.70
2019-02-26T13:38:49.146Z,2.17
2019-02-26T13:41:29.372Z,2.40
2019-02-26T13:43:53.897Z,2.50
2019-02-26T13:46:25.279Z,2.40
2019-02-26T13:48:56.657Z,2.40
2019-02-26T13:51:28.032Z,3.40
2019-02-26T13:53:59.280Z,2.80
2019-02-26T13:56:30.549Z,4.27
2019-02-26T13:59:01.862Z,3.00
2019-02-26T14:01:34.213Z,3.23
2019-02-26T14:04:05.589Z,4.13
2019-02-26T14:06:36.882Z,3.80
2019-02-26T14:09:08.425Z,3.87
2019-02-26T14:11:40.189Z,3.50
2019-02-26T14:14:11.601Z,3.50
2019-02-26T14:16:43.039Z,3.50
2019-02-26T14:19:14.386Z,3.80
2019-02-26T14:21:45.708Z,5.23
2019-02-26T14:24:17.106Z,4.87
2019-02-26T14:26:48.630Z,3.57
2019-02-26T14:29:20.004Z,4.07
2019-02-26T14:31:51.197Z,4.13
2019-02-26T14:34:22.677Z,5.40
2019-02-26T14:37:06.127Z,5.50
2019-02-26T14:39:37.681Z,4.90
2019-02-26T14:42:10.320Z,4.33
2019-02-26T14:44:41.835Z,4.27
2019-02-26T14:47:13.238Z,4.00
2019-02-26T14:49:44.560Z,4.37
2019-02-26T14:52:15.990Z,4.10
2019-02-26T14:54:47.375Z,3.97
2019-02-26T14:57:18.717Z,3.80
2019-02-26T14:59:50.105Z,4.67
2019-02-26T15:02:21.466Z,3.40
2019-02-26T15:04:52.724Z,3.90
2019-02-26T15:07:24.161Z,3.73
2019-02-26T15:09:55.574Z,4.13
2019-02-26T15:12:27.007Z,4.53
2019-02-26T15:14:58.325Z,4.17
2019-02-26T15:17:30.904Z,4.90
2019-02-26T15:20:14.709Z,4.57
2019-02-26T15:22:46.068Z,4.80
2019-02-26T15:25:19.501Z,4.80
2019-02-26T15:27:50.951Z,5.03
2019-02-26T15:30:22.453Z,5.87
2019-02-26T15:32:53.781Z,5.63
2019-02-26T15:35:25.181Z,5.73
2019-02-26T15:37:56.556Z,5.90
2019-02-26T15:40:28.070Z,6.33
2019-02-26T15:43:11.202Z,6.43
2019-02-26T15:45:53.980Z,6.93
2019-02-26T15:48:26.212Z,6.50
2019-02-26T15:50:57.665Z,6.70
2019-02-26T15:53:29.353Z,6.47
2019-02-26T15:56:00.798Z,6.20
2019-02-26T15:58:34.196Z,6.20
2019-02-26T16:01:15.766Z,5.73
2019-02-26T16:03:47.301Z,5.50
2019-02-26T16:06:19.113Z,5.40
2019-02-26T16:08:50.473Z,5.60
2019-02-26T16:11:22.739Z,5.40
2019-02-26T16:13:54.026Z,5.30
2019-02-26T16:16:25.579Z,5.43
2019-02-26T16:19:00.320Z,5.03
2019-02-26T16:21:30.033Z,5.17
2019-02-26T16:24:01.333Z,4.97
2019-02-26T16:26:32.834Z,5.53
2019-02-26T16:29:04.208Z,5.50
2019-02-26T16:31:35.542Z,5.70
2019-02-26T16:34:07.021Z,5.73
2019-02-26T16:36:38.431Z,5.60
2019-02-26T16:39:09.994Z,5.73
2019-02-26T16:41:42.233Z,5.40
2019-02-26T16:44:25.427Z,6.63
2019-02-26T16:46:56.764Z,6.70
2019-02-26T16:49:28.419Z,6.10
2019-02-26T16:52:00.957Z,6.47
2019-02-26T16:54:32.397Z,7.17
2019-02-26T16:57:03.929Z,6.23
2019-02-26T16:59:35.261Z,6.93
2019-02-26T17:02:06.740Z,8.73
2019-02-26T17:04:38.594Z,8.60
2019-02-26T17:07:11.285Z,9.17
2019-02-26T17:09:43.598Z,7.97
2019-02-26T17:12:15.093Z,8.20
2019-02-26T17:14:50.417Z,10.50
2019-02-26T17:17:19.847Z,9.43
2019-02-26T17:19:51.138Z,9.90
2019-02-26T17:22:22.456Z,9.90
2019-02-26T17:24:54.188Z,8.63
2019-02-26T17:27:25.560Z,8.20
2019-02-26T17:29:57.014Z,10.50
2019-02-26T17:32:28.633Z,9.50
2019-02-26T17:35:00.107Z,10.23
2019-02-26T17:37:31.987Z,8.77
2019-02-26T17:40:15.642Z,9.17
2019-02-26T17:42:48.795Z,10.57
2019-02-26T17:45:20.436Z,13.60
2019-02-26T17:47:52.028Z,10.57
2019-02-26T17:50:26.101Z,11.80
2019-02-26T17:52:57.503Z,10.33
2019-02-26T17:55:41.121Z,13.30
2019-02-26T17:58:24.672Z,10.67
2019-02-26T18:00:57.098Z,12.40
2019-02-26T18:03:28.492Z,12.47
2019-02-26T18:05:59.884Z,14.37
2019-02-26T18:08:41.464Z,10.37
2019-02-26T18:11:12.761Z,12.43
2019-02-26T18:13:57.844Z,12.63
2019-02-26T18:16:41.626Z,14.53
2019-02-26T18:19:14.422Z,10.87
2019-02-26T18:21:58.402Z,14.70
2019-02-26T18:24:42.063Z,14.10
2019-02-26T18:27:13.472Z,11.63
2019-02-26T18:29:44.896Z,13.37
2019-02-26T18:32:16.198Z,13.37
2019-02-26T18:34:47.656Z,14.60
2019-02-26T18:37:20.447Z,17.37
2019-02-26T18:39:54.802Z,15.97
2019-02-26T18:42:26.305Z,15.77
2019-02-26T18:44:58.717Z,11.97
2019-02-26T18:47:30.373Z,14.17
2019-02-26T18:50:02.023Z,12.03
2019-02-26T18:52:33.521Z,11.83
2019-02-26T18:55:05.198Z,14.33
2019-02-26T18:57:36.921Z,12.43
2019-02-26T19:00:10.718Z,14.77
2019-02-26T19:02:42.394Z,11.57
2019-02-26T19:05:13.856Z,14.43
2019-02-26T19:07:45.320Z,11.23
2019-02-26T19:10:19.424Z,10.40
2019-02-26T19:13:03.299Z,11.93
2019-02-26T19:15:48.496Z,13.30
2019-02-26T19:18:35.323Z,13.27
2019-02-26T19:21:05.209Z,12.53
2019-02-26T19:23:36.478Z,13.27
2019-02-26T19:26:07.933Z,13.70
2019-02-26T19:28:39.284Z,13.83
2019-02-26T19:34:09.437Z,15.70
2019-02-26T19:36:40.934Z,14.93
2019-02-26T19:39:12.336Z,14.70
2019-02-26T19:41:45.490Z,14.73
2019-02-26T19:44:17.074Z,14.30
2019-02-26T19:46:49.644Z,14.87
2019-02-26T19:51:56.477Z,15.20
2019-02-26T19:54:27.933Z,15.00
2019-02-26T19:56:59.302Z,13.87
2019-02-26T19:59:30.567Z,15.07
2019-02-26T20:02:03.842Z,15.20
2019-02-26T20:04:38.420Z,15.23
2019-02-26T20:07:08.386Z,15.20
2019-02-26T20:09:41.570Z,18.47
2019-02-26T20:12:13.467Z,17.17
2019-02-26T20:14:48.624Z,17.17
2019-02-26T20:17:18.782Z,18.00
2019-02-26T20:19:50.523Z,17.00
2019-02-26T20:22:22.077Z,19.23
2019-02-26T20:24:55.360Z,17.47
2019-02-26T20:27:26.788Z,18.10
2019-02-26T20:29:59.024Z,18.33
2019-02-26T20:32:31.059Z,16.33
2019-02-26T20:35:02.924Z,13.97
2019-02-26T20:37:35.427Z,14.40
2019-02-26T20:40:09.553Z,12.43
2019-02-26T20:42:41.049Z,13.80
2019-02-26T20:45:17.758Z,12.57
2019-02-26T20:47:47.456Z,12.97
2019-02-26T20:50:21.079Z,12.70
2019-02-26T20:52:52.555Z,12.87
2019-02-26T20:55:24.977Z,12.77
2019-02-26T20:57:56.501Z,12.10
2019-02-26T21:00:27.876Z,12.40
2019-02-26T21:02:59.388Z,12.33
2019-02-26T21:05:30.908Z,12.10
2019-02-26T21:08:02.400Z,11.73
2019-02-26T21:10:33.748Z,11.47
2019-02-26T21:13:05.707Z,12.37
2019-02-26T21:15:49.402Z,11.97
2019-02-26T21:18:21.589Z,11.90
2019-02-26T21:21:14.094Z,12.63
2019-02-26T21:23:47.085Z,11.93
2019-02-26T21:26:19.659Z,12.13
2019-02-26T21:28:52.081Z,13.30
2019-02-26T21:31:23.504Z,12.57
2019-02-26T21:33:54.890Z,12.57
2019-02-26T21:36:38.065Z,12.00
2019-02-26T21:39:11.081Z,13.03
2019-02-26T21:41:42.739Z,13.57
2019-02-26T21:44:25.810Z,14.07
2019-02-26T21:46:57.104Z,12.63
2019-02-26T21:49:28.827Z,13.53
2019-02-26T21:52:00.196Z,13.77
2019-02-26T21:54:43.595Z,13.53
2019-02-26T21:57:14.883Z,14.07
2019-02-26T21:59:58.071Z,14.33
2019-02-26T22:02:39.621Z,14.83
2019-02-26T22:05:11.252Z,16.30
2019-02-26T22:07:42.644Z,14.80
2019-02-26T22:10:26.141Z,15.90
2019-02-26T22:13:07.696Z,17.53
2019-02-26T22:15:39.216Z,15.73
2019-02-26T22:18:10.720Z,15.57
2019-02-26T22:20:42.152Z,16.23
2019-02-26T22:23:14.936Z,16.50
2019-02-26T22:25:56.934Z,16.07
2019-02-26T22:28:28.413Z,16.20
2019-02-26T22:30:59.789Z,16.37
2019-02-26T22:33:31.263Z,16.87
2019-02-26T22:36:02.673Z,15.90
2019-02-26T22:38:33.997Z,16.80
2019-02-26T22:41:05.523Z,16.57
2019-02-26T22:43:36.924Z,15.43
2019-02-26T22:46:08.413Z,16.97
2019-02-26T22:48:39.814Z,16.30
2019-02-26T22:51:11.410Z,16.73
2019-02-26T22:53:42.713Z,16.17
2019-02-26T22:56:15.366Z,15.70
2019-02-26T22:58:46.820Z,16.60
2019-02-26T23:01:42.389Z,17.43
2019-02-26T23:04:19.319Z,18.30
2019-02-26T23:06:47.608Z,16.87
2019-02-26T23:09:21.198Z,16.80
2019-02-26T23:11:52.872Z,16.93
2019-02-26T23:14:24.652Z,18.00
2019-02-26T23:16:56.101Z,17.00
2019-02-26T23:19:27.577Z,17.60
2019-02-26T23:21:59.054Z,18.90
2019-02-26T23:24:30.445Z,16.93
2019-02-26T23:27:01.813Z,18.40
2019-02-26T23:29:33.280Z,17.83
2019-02-26T23:32:06.167Z,18.30
2019-02-26T23:34:38.046Z,17.27
2019-02-26T23:37:10.548Z,16.70
2019-02-26T23:39:41.930Z,17.43
2019-02-26T23:42:13.429Z,18.57
2019-02-26T23:44:44.866Z,16.30
2019-02-26T23:47:16.281Z,17.37
2019-02-26T23:49:48.361Z,16.20
2019-02-26T23:52:19.887Z,15.93
2019-02-26T23:54:51.272Z,16.90
2019-02-26T23:57:22.741Z,16.00
2019-02-26T23:59:55.581Z,16.63
